createdAt,value
2023-04-11T00:01:54.624Z,0.88
2023-04-11T00:05:57.426Z,0.80
2023-04-11T00:10:02.114Z,1.10
2023-04-11T00:14:05.520Z,0.88
2023-04-11T00:18:09.072Z,1.27
2023-04-11T00:22:11.827Z,0.60
2023-04-11T00:26:15.918Z,0.70
2023-04-11T00:30:19.258Z,0.82
2023-04-11T00:34:22.052Z,0.70
2023-04-11T00:38:24.772Z,0.65
2023-04-11T00:42:28.871Z,0.60
2023-04-11T00:46:32.905Z,0.70
2023-04-11T00:50:37.277Z,0.63
2023-04-11T00:54:40.277Z,0.50
2023-04-11T00:58:45.560Z,0.77
2023-04-11T01:02:48.836Z,0.55
2023-04-11T01:06:56.695Z,0.63
2023-04-11T01:10:59.567Z,0.55
2023-04-11T01:15:04.682Z,0.55
2023-04-11T01:19:08.420Z,0.60
2023-04-11T01:23:12.485Z,0.90
2023-04-11T01:27:16.668Z,0.77
2023-04-11T01:31:20.857Z,0.80
2023-04-11T01:35:24.001Z,0.80
2023-04-11T01:39:26.827Z,0.70
2023-04-11T01:43:31.068Z,0.77
2023-04-11T01:47:33.901Z,0.70
2023-04-11T01:51:37.186Z,0.90
2023-04-11T01:55:40.927Z,0.95
2023-04-11T01:59:45.035Z,0.90
2023-04-11T02:03:47.926Z,1.10
2023-04-11T02:07:50.782Z,0.95
2023-04-11T02:11:54.554Z,1.20
2023-04-11T02:15:58.659Z,1.20
2023-04-11T02:20:06.885Z,1.27
2023-04-11T02:24:09.736Z,1.10
2023-04-11T02:28:12.618Z,1.65
2023-04-11T02:32:16.783Z,1.50
2023-04-11T02:36:22.147Z,1.40
2023-04-11T02:40:24.876Z,1.58
2023-04-11T02:44:29.325Z,1.63
2023-04-11T02:48:35.281Z,1.77
2023-04-11T02:52:39.342Z,1.73
2023-04-11T02:56:43.326Z,1.73
2023-04-11T03:00:46.502Z,1.75
2023-04-11T03:04:56.673Z,1.75
2023-04-11T03:08:59.688Z,1.40
2023-04-11T03:13:03.059Z,1.77
2023-04-11T03:17:05.766Z,2.28
2023-04-11T03:21:11.637Z,1.70
2023-04-11T03:25:18.959Z,2.08
2023-04-11T03:29:23.993Z,2.42
2023-04-11T03:33:37.323Z,2.47
2023-04-11T03:37:41.582Z,2.42
2023-04-11T03:41:44.374Z,2.60
2023-04-11T03:45:48.021Z,2.40
2023-04-11T03:50:01.140Z,3.10
2023-04-11T03:54:07.523Z,2.90
2023-04-11T03:58:16.554Z,3.00
2023-04-11T04:02:19.950Z,3.70
2023-04-11T04:06:28.514Z,3.38
2023-04-11T04:10:34.954Z,4.05
2023-04-11T04:14:37.818Z,3.78
2023-04-11T04:18:41.085Z,4.25
2023-04-11T04:22:47.410Z,4.10
2023-04-11T04:26:57.887Z,4.72
2023-04-11T04:31:15.516Z,4.80
2023-04-11T04:35:18.584Z,4.95
2023-04-11T04:39:21.416Z,5.40
2023-04-11T04:43:32.339Z,5.57
2023-04-11T04:47:51.608Z,5.13
2023-04-11T04:51:54.411Z,5.70
2023-04-11T04:55:57.516Z,5.63
2023-04-11T05:00:06.791Z,5.47
2023-04-11T05:04:11.972Z,5.90
2023-04-11T05:08:31.836Z,5.50
2023-04-11T05:12:37.834Z,6.43
2023-04-11T05:16:46.262Z,3.55
2023-04-11T05:20:49.370Z,4.80
2023-04-11T05:24:58.108Z,5.80
2023-04-11T05:29:02.313Z,5.97
2023-04-11T05:33:06.777Z,6.43
2023-04-11T05:37:10.968Z,5.82
2023-04-11T05:41:14.180Z,5.43
2023-04-11T05:45:17.208Z,6.00
2023-04-11T05:49:21.350Z,4.95
2023-04-11T05:53:25.068Z,4.57
2023-04-11T05:57:28.146Z,2.15
2023-04-11T06:01:30.924Z,2.70
2023-04-11T06:05:35.416Z,3.15
2023-04-11T06:13:42.095Z,4.15
2023-04-11T06:17:46.014Z,4.20
2023-04-11T06:21:51.729Z,5.00
2023-04-11T06:25:54.778Z,5.07
2023-04-11T06:29:57.761Z,5.95
2023-04-11T06:34:01.338Z,6.35
2023-04-11T06:38:06.033Z,6.35
2023-04-11T06:42:08.995Z,6.97
2023-04-11T06:46:12.105Z,6.90
2023-04-11T06:50:15.203Z,5.88
2023-04-11T06:54:19.523Z,5.97
2023-04-11T06:58:22.246Z,5.82
2023-04-11T07:02:25.810Z,6.50
2023-04-11T07:06:29.346Z,6.28
2023-04-11T07:10:34.008Z,5.55
2023-04-11T07:14:38.308Z,4.60
2023-04-11T07:18:41.564Z,4.15
2023-04-11T07:22:44.419Z,4.15
2023-04-11T07:26:51.867Z,4.25
2023-04-11T07:30:54.978Z,4.55
2023-04-11T07:34:57.855Z,4.70
2023-04-11T07:39:02.243Z,4.55
2023-04-11T07:43:09.480Z,4.30
2023-04-11T07:47:13.507Z,3.60
2023-04-11T07:51:18.643Z,3.35
2023-04-11T07:55:22.806Z,3.80
2023-04-11T07:59:28.438Z,4.47
2023-04-11T08:03:33.172Z,4.32
2023-04-11T08:07:37.618Z,3.72
2023-04-11T08:11:41.899Z,3.95
2023-04-11T08:15:47.267Z,4.10
2023-04-11T08:19:50.369Z,3.95
2023-04-11T08:23:53.408Z,3.83
2023-04-11T08:27:57.267Z,4.20
2023-04-11T08:32:02.310Z,3.35
2023-04-11T08:36:10.946Z,3.40
2023-04-11T08:40:14.299Z,3.25
2023-04-11T08:44:19.624Z,2.88
2023-04-11T08:48:26.028Z,3.10
2023-04-11T08:52:31.121Z,2.78
2023-04-11T08:56:35.622Z,2.35
2023-04-11T09:00:38.705Z,2.42
2023-04-11T09:04:47.906Z,2.40
2023-04-11T09:08:51.249Z,2.00
2023-04-11T09:12:54.599Z,1.38
2023-04-11T09:17:02.763Z,1.75
2023-04-11T09:21:11.113Z,1.85
2023-04-11T09:25:15.906Z,1.50
2023-04-11T09:29:40.265Z,1.42
2023-04-11T09:33:56.122Z,1.30
2023-04-11T09:38:09.719Z,1.40
2023-04-11T09:42:41.010Z,1.48
2023-04-11T09:47:00.255Z,1.45
2023-04-11T09:51:05.688Z,1.60
2023-04-11T09:55:18.692Z,1.90
2023-04-11T09:59:25.532Z,1.77
2023-04-11T10:03:34.717Z,2.20
2023-04-11T10:07:49.934Z,2.25
2023-04-11T10:11:57.451Z,2.10
2023-04-11T10:16:09.212Z,2.40
2023-04-11T10:20:44.862Z,3.10
2023-04-11T10:25:18.398Z,3.42
2023-04-11T10:29:51.791Z,3.25
2023-04-11T10:34:18.850Z,2.60
2023-04-11T10:38:48.127Z,2.20
2023-04-11T10:42:51.535Z,1.50
2023-04-11T10:46:56.669Z,1.58
2023-04-11T10:50:59.542Z,1.98
2023-04-11T10:55:17.619Z,2.50
2023-04-11T10:59:54.108Z,2.90
2023-04-11T11:03:58.856Z,3.25
2023-04-11T11:08:01.895Z,3.90
2023-04-11T11:12:09.201Z,3.35
2023-04-11T11:16:15.866Z,3.10
2023-04-11T11:20:20.880Z,3.38
2023-04-11T11:24:26.208Z,2.85
2023-04-11T11:32:36.779Z,3.20
2023-04-11T11:36:47.062Z,3.30
2023-04-11T11:40:50.563Z,3.28
2023-04-11T11:44:53.849Z,2.78
2023-04-11T11:49:03.624Z,3.22
2023-04-11T11:53:19.331Z,3.15
2023-04-11T11:57:28.564Z,3.58
2023-04-11T12:01:31.849Z,3.00
2023-04-11T12:05:38.640Z,2.70
2023-04-11T12:09:45.171Z,2.65
2023-04-11T12:13:53.992Z,2.70
2023-04-11T12:17:57.368Z,2.63
2023-04-11T12:22:32.480Z,3.10
2023-04-11T12:27:06.437Z,2.90
2023-04-11T12:31:25.224Z,2.20
2023-04-11T12:35:39.242Z,2.00
2023-04-11T12:44:10.188Z,1.92
2023-04-11T12:48:18.725Z,1.67
2023-04-11T12:52:26.820Z,1.80
2023-04-11T12:56:35.660Z,2.80
2023-04-11T13:00:53.356Z,1.90
2023-04-11T13:05:22.315Z,1.75
2023-04-11T13:10:05.096Z,2.00
2023-04-11T13:18:34.964Z,1.73
2023-04-11T13:27:30.627Z,2.10
2023-04-11T13:31:54.547Z,2.15
2023-04-11T13:36:32.725Z,1.80
2023-04-11T13:40:54.474Z,1.92
2023-04-11T13:45:05.548Z,1.98
2023-04-11T13:49:31.392Z,2.28
2023-04-11T13:53:58.412Z,2.03
2023-04-11T14:02:58.418Z,2.13
2023-04-11T14:07:45.943Z,2.20
2023-04-11T14:17:52.298Z,2.45
2023-04-11T14:22:30.405Z,2.22
2023-04-11T14:47:39.138Z,2.08
2023-04-11T14:52:22.604Z,2.40
2023-04-11T15:13:25.295Z,1.38
2023-04-11T15:18:54.800Z,1.42
2023-04-11T15:38:49.044Z,0.98
2023-04-11T15:53:20.080Z,1.27
2023-04-11T15:57:48.777Z,1.25
2023-04-11T16:02:41.198Z,1.45
2023-04-11T16:12:15.112Z,1.08
2023-04-11T16:21:34.949Z,1.38
2023-04-11T16:30:47.152Z,1.23
2023-04-11T16:35:21.623Z,1.40
2023-04-11T16:40:35.263Z,1.40
2023-04-11T16:45:41.862Z,1.33
2023-04-11T16:51:55.063Z,1.30
2023-04-11T17:01:48.875Z,1.13
2023-04-11T17:05:51.674Z,1.20
2023-04-11T17:09:54.402Z,1.20
2023-04-11T17:13:57.263Z,1.02
2023-04-11T17:18:01.603Z,1.55
2023-04-11T17:22:05.764Z,1.13
2023-04-11T17:26:09.011Z,1.13
2023-04-11T17:30:12.312Z,1.45
2023-04-11T17:34:16.520Z,1.77
2023-04-11T17:38:19.807Z,1.60
2023-04-11T17:42:23.412Z,2.00
2023-04-11T17:46:26.142Z,2.10
2023-04-11T17:50:30.454Z,2.25
2023-04-11T17:54:33.943Z,2.25
2023-04-11T17:58:37.080Z,1.70
2023-04-11T18:02:42.478Z,1.83
2023-04-11T18:06:47.496Z,1.50
2023-04-11T18:10:50.216Z,1.30
2023-04-11T18:14:54.218Z,1.70
2023-04-11T18:18:56.935Z,1.80
2023-04-11T18:23:01.642Z,2.00
2023-04-11T18:27:05.034Z,2.08
2023-04-11T18:31:07.890Z,1.75
2023-04-11T18:35:11.691Z,1.77
2023-04-11T18:39:15.722Z,1.48
2023-04-11T18:43:18.472Z,1.50
2023-04-11T18:47:21.381Z,2.10
2023-04-11T18:51:24.294Z,2.95
2023-04-11T18:55:30.249Z,2.35
2023-04-11T18:59:37.480Z,2.25
2023-04-11T19:03:42.473Z,2.03
2023-04-11T19:07:45.720Z,3.65
2023-04-11T19:11:50.398Z,4.68
2023-04-11T19:15:53.134Z,3.00
2023-04-11T19:19:56.065Z,2.85
2023-04-11T19:24:00.813Z,2.58
2023-04-11T19:28:05.178Z,2.50
2023-04-11T19:32:08.884Z,2.78
2023-04-11T19:36:11.932Z,2.25
2023-04-11T19:40:14.845Z,2.40
2023-04-11T19:44:18.913Z,2.30
2023-04-11T19:48:21.725Z,2.20
2023-04-11T19:52:24.930Z,2.40
2023-04-11T19:56:27.686Z,2.03
2023-04-11T20:00:36.028Z,2.08
2023-04-11T20:04:39.788Z,2.13
2023-04-11T20:08:42.709Z,1.70
2023-04-11T20:12:45.819Z,1.70
2023-04-11T20:16:49.893Z,2.53
2023-04-11T20:20:52.635Z,2.67
2023-04-11T20:24:55.380Z,1.75
2023-04-11T20:28:59.938Z,1.90
2023-04-11T20:33:04.181Z,5.95
2023-04-11T20:37:06.978Z,2.30
2023-04-11T20:41:09.786Z,2.30
2023-04-11T20:45:15.524Z,2.45
2023-04-11T20:49:20.260Z,2.70
2023-04-11T20:53:23.024Z,2.67
2023-04-11T20:57:26.632Z,2.67
2023-04-11T21:01:32.642Z,2.50
2023-04-11T21:05:37.822Z,2.50
2023-04-11T21:09:40.948Z,2.33
2023-04-11T21:13:43.667Z,2.30
2023-04-11T21:17:46.641Z,2.35
2023-04-11T21:21:51.224Z,2.38
2023-04-11T21:25:54.587Z,2.60
2023-04-11T21:29:57.436Z,2.22
2023-04-11T21:34:00.290Z,2.33
2023-04-11T21:38:04.392Z,2.40
2023-04-11T21:42:07.128Z,2.65
2023-04-11T21:46:09.854Z,2.10
2023-04-11T21:50:12.907Z,2.47
2023-04-11T21:54:17.061Z,2.50
2023-04-11T21:58:29.220Z,2.40
2023-04-11T22:02:32.976Z,2.53
2023-04-11T22:06:36.043Z,2.38
2023-04-11T22:10:47.626Z,2.20
2023-04-11T22:14:52.733Z,3.00
2023-04-11T22:18:58.099Z,2.50
2023-04-11T22:23:00.782Z,2.50
2023-04-11T22:27:06.971Z,2.63
2023-04-11T22:31:14.091Z,2.40
2023-04-11T22:35:16.959Z,2.28
2023-04-11T22:39:20.154Z,2.13
2023-04-11T22:43:24.180Z,2.10
2023-04-11T22:47:28.812Z,2.20
2023-04-11T22:51:31.565Z,2.25
2023-04-11T22:55:34.921Z,1.67
2023-04-11T22:59:39.016Z,2.20
